01:41 Rennrad Moetz - Silz - 4x Agip - Haiming - Apfelstr - Agip - Silz - Moetz
Ort Moetz Datum 11.09.2017 11:13:08
Kategorie Rennrad
Distanz 58,94 Kilometer Steigung 168,0 Meter Gefälle -175,0 Meter
Gesamt Zeit 01:41:03 Aktiv 01:40:47 Pause 00:00:16
Durchs. Tempo 35,1 km/h Tempo max. 44,4 km/h Tempo min. 22,7 km/h
Kalorien 0 Durchs. HF 131 BPM HF max. 146 BPM
Wetter 15 °C Clouds Min/Max: 14,3 °C/15,1 °C; Druck: 1004,6 mbar; Rel. Feuchte: 79,9%; Taupunkt: 10,4 °C; Windgeschwindigkeit: 1,5 km/h; Niederschlag: 0,0mm
Ausrüstung Bontrager - RL Road
Scott - Addict 20
Shimano - CN-HG601-11
Notiz Moetz - Silz - 4x Agip - Haiming - Apfelstr - Agip - Silz - Moetz ... trocken, leicht windig, perfektes Radlwetter - locker bis flott ... garmin connect
Splits
Distanz (km) Gesamt Zeit Split Zeit Split Tempo Split Tempo Höhenprofil (m)
1,00 00:01:57 00:01:57 00:01:58 30,6 -10,06
2,00 00:03:49 00:01:51 00:01:51 32,4 2,25
3,00 00:05:22 00:01:33 00:01:34 38,3 7,81
4,00 00:07:05 00:01:42 00:01:42 35,2 9,24
5,00 00:08:59 00:01:54 00:01:55 31,4 5,59
6,00 00:10:40 00:01:40 00:01:41 35,7 5,77
7,00 00:12:22 00:01:41 00:01:42 35,4 1,19
8,00 00:14:00 00:01:38 00:01:38 36,6 7,30
9,00 00:15:45 00:01:45 00:01:45 34,3 -8,35
10,00 00:17:23 00:01:37 00:01:38 36,8 -9,70
11,00 00:19:07 00:01:43 00:01:44 34,6 -0,90
12,00 00:20:48 00:01:40 00:01:41 35,7 -3,32
13,00 00:22:30 00:01:42 00:01:42 35,2 1,72
14,00 00:24:11 00:01:40 00:01:41 35,8 -4,62
15,00 00:25:55 00:01:44 00:01:44 34,5 -8,73
16,00 00:27:39 00:01:43 00:01:44 34,6 1,06
17,00 00:29:28 00:01:48 00:01:49 33,1 9,18
18,00 00:31:26 00:01:58 00:01:58 30,4 7,26
19,00 00:33:08 00:01:42 00:01:42 35,2 6,11
20,00 00:34:44 00:01:35 00:01:35 37,8 2,10
21,00 00:36:20 00:01:36 00:01:37 37,1 4,74
22,00 00:37:57 00:01:36 00:01:37 37,2 -1,19
23,00 00:39:29 00:01:31 00:01:32 39,2 -9,53
24,00 00:41:12 00:01:42 00:01:43 35,1 -3,05
25,00 00:42:54 00:01:41 00:01:42 35,3 -3,78
26,00 00:44:31 00:01:37 00:01:38 36,8 -0,86
27,00 00:46:10 00:01:38 00:01:39 36,5 0,42
28,00 00:47:53 00:01:43 00:01:43 34,9 -9,44
29,00 00:49:35 00:01:41 00:01:42 35,4 -5,30
30,00 00:51:27 00:01:51 00:01:52 32,2 8,88
31,00 00:53:17 00:01:50 00:01:51 32,5 8,96
32,00 00:55:03 00:01:45 00:01:45 34,2 5,63
33,00 00:56:41 00:01:37 00:01:38 36,9 4,66
34,00 00:58:22 00:01:41 00:01:41 35,6 1,56
35,00 01:00:08 00:01:46 00:01:46 33,9 6,57
36,00 01:01:41 00:01:33 00:01:33 38,7 -10,12
37,00 01:03:18 00:01:37 00:01:37 37,0 -8,62
38,00 01:05:03 00:01:44 00:01:45 34,4 -0,53
39,00 01:06:41 00:01:37 00:01:38 36,9 -3,44
40,00 01:08:19 00:01:38 00:01:38 36,6 1,69
41,00 01:09:59 00:01:40 00:01:40 36,0 -7,74
42,00 01:11:39 00:01:39 00:01:39 36,2 -5,62
43,00 01:13:28 00:01:49 00:01:49 32,9 4,63
44,00 01:15:14 00:01:45 00:01:46 34,0 9,18
45,00 01:17:07 00:01:53 00:01:54 31,6 5,83
46,00 01:18:46 00:01:38 00:01:39 36,5 5,94
47,00 01:20:28 00:01:42 00:01:42 35,2 1,26
48,00 01:22:11 00:01:42 00:01:43 35,0 6,88
49,00 01:23:45 00:01:33 00:01:34 38,3 -6,94
50,00 01:25:23 00:01:37 00:01:38 36,9 -9,89
51,00 01:27:06 00:01:42 00:01:43 35,0 -0,65
52,00 01:28:44 00:01:37 00:01:38 36,8 -3,97
53,00 01:30:23 00:01:39 00:01:39 36,2 1,31
54,00 01:32:00 00:01:36 00:01:37 37,2 -3,30
55,00 01:33:43 00:01:43 00:01:43 34,9 -9,26
56,00 01:35:25 00:01:41 00:01:42 35,3 -0,60
57,00 01:37:12 00:01:46 00:01:47 33,7 -3,08
58,00 01:38:47 00:01:35 00:01:35 37,8 -2,34
59,00 01:40:45 00:01:58 00:01:58 30,4 10,36
59,00 01:40:47 00:00:01 00:07:48 7,7 0,03